Menomonee — 5BKY4 — position and weather

sailwx.info

Track history (hours):
 
Tides and Currents Weather Stations Pressure Air Temp Water Temp Dewpoint Dewpoint Depression Visibility Wind Speed Wind Dir Waves Ship Positions

Menomonee

Last reported at 2017-Sep-13 07:41 UTC. Time now 2017-Nov-24 07:34 UTC.
Position N 30°29' W 119°27'.
Warning: this ship's position is months out of date.

Length 190 m; draft 12.9 m.

Type: Cargo ship. MMSI: 212968000.

Date/timePositionNaut miles runAvg speedWind from/ knotsBaromVisibWave heightAir tempDewpointWater temp
2017-Sep-13 07:41N 30°29' W 119°27'212.3
2017-Sep-13 07:30N 30°30' W 119°28'1312.1
2017-Sep-13 06:27N 30°40' W 119°38'4711.7
2017-Sep-13 02:27N 31°19' W 120°08'511.9
2017-Sep-13 02:00N 31°24' W 120°11'811.8
2017-Sep-13 01:19N 31°31' W 120°15'412.1
2017-Sep-13 01:00N 31°34' W 120°17'912.1
2017-Sep-13 00:16N 31°42' W 120°22'711.9
2017-Sep-12 23:43N 31°48' W 120°25'511.7
2017-Sep-12 23:17N 31°53' W 120°28'9311.6
2017-Sep-12 15:20N 33°15' W 121°17'711.6
2017-Sep-12 14:43N 33°22' W 121°21'511.5
2017-Sep-12 14:17N 33°26' W 121°24'611.2
2017-Sep-12 13:47N 33°31' W 121°27'311.4
2017-Sep-12 13:29N 33°34' W 121°28'611.6
2017-Sep-12 12:59N 33°39' W 121°32'611.7
2017-Sep-12 12:30N 33°44' W 121°35'611.6
2017-Sep-12 12:01N 33°49' W 121°38'611.3
2017-Sep-12 11:31N 33°54' W 121°41'611.2
2017-Sep-12 11:00N 33°60' W 121°44'611.2
2017-Sep-12 10:31N 34°04' W 121°47'611.2
2017-Sep-12 10:00N 34°09' W 121°50'611.2
2017-Sep-12 09:30N 34°14' W 121°53'1211.3
2017-Sep-12 08:29N 34°25' W 121°59'511.2
2017-Sep-12 08:00N 34°30' W 122°02'611.7
2017-Sep-12 07:30N 34°35' W 122°06'612.0
2017-Sep-12 07:00N 34°40' W 122°09'612.1
2017-Sep-12 06:30N 34°46' W 122°12'612.0
2017-Sep-12 06:00N 34°51' W 122°15'612.0
2017-Sep-12 05:30N 34°56' W 122°19'1412.0
2017-Sep-12 04:20N 35°09' W 122°26'411.9
2017-Sep-12 03:59N 35°13' W 122°28'611.8
2017-Sep-12 03:30N 35°18' W 122°32'811.6
2017-Sep-12 02:48N 35°25' W 122°36'1511.4
2017-Sep-12 01:26N 35°39' W 122°45'511.6
2017-Sep-12 00:59N 35°44' W 122°48'611.7
2017-Sep-12 00:30N 35°49' W 122°51'611.7
2017-Sep-11 23:57N 35°54' W 122°54'511.8
2017-Sep-11 23:30N 35°59' W 122°57'611.7
2017-Sep-11 23:00N 36°04' W 123°00'611.7
2017-Sep-11 22:30N 36°10' W 123°04'611.9
2017-Sep-11 22:00N 36°15' W 123°07'611.6
2017-Sep-11 21:30N 36°20' W 123°10'611.4
2017-Sep-11 21:00N 36°25' W 123°13'711.6
2017-Sep-11 20:26N 36°31' W 123°17'1211.5
2017-Sep-11 19:25N 36°41' W 123°24'511.6
2017-Sep-11 19:00N 36°46' W 123°27'611.5
2017-Sep-11 18:30N 36°51' W 123°30'611.6
2017-Sep-11 18:00N 36°56' W 123°33'611.6
2017-Sep-11 17:30N 37°01' W 123°36'611.6
2017-Sep-11 17:01N 37°06' W 123°40'611.5
2017-Sep-11 16:30N 37°11' W 123°43'611.4
2017-Sep-11 16:00N 37°16' W 123°46'611.4
2017-Sep-11 15:30N 37°21' W 123°50'511.0
2017-Sep-11 15:00N 37°26' W 123°52'611.1
2017-Sep-11 14:30N 37°32' W 123°55'611.0
2017-Sep-11 14:00N 37°37' W 123°58'611.1
2017-Sep-11 13:30N 37°42' W 124°01'611.1
2017-Sep-11 13:00N 37°47' W 124°04'611.0
2017-Sep-11 12:28N 37°52' W 124°06'510.9
2017-Sep-11 12:00N 37°57' W 124°08'611.0
2017-Sep-11 11:30N 38°02' W 124°10'611.1
2017-Sep-11 11:00N 38°08' W 124°12'611.2
2017-Sep-11 10:30N 38°13' W 124°14'511.0
2017-Sep-11 10:00N 38°18' W 124°16'611.1
2017-Sep-11 09:30N 38°24' W 124°18'611.4
2017-Sep-11 09:00N 38°29' W 124°20'611.6
2017-Sep-11 08:30N 38°35' W 124°21'611.4
2017-Sep-11 08:00N 38°40' W 124°24'611.8
2017-Sep-11 07:30N 38°46' W 124°26'611.8
2017-Sep-11 07:00N 38°52' W 124°28'612.0
2017-Sep-11 06:30N 38°57' W 124°30'611.7
2017-Sep-11 06:00N 39°03' W 124°32'611.7
2017-Sep-11 05:30N 39°09' W 124°34'611.7
2017-Sep-11 04:59N 39°15' W 124°36'37111.0
2017-Sep-09 19:16N 45°25' W 124°22'510.3
2017-Sep-09 18:45N 45°30' W 124°20'610.4
2017-Sep-09 18:12N 45°36' W 124°19'210.7
2017-Sep-09 18:00N 45°38' W 124°18'510.7
2017-Sep-09 17:30N 45°43' W 124°17'510.2
2017-Sep-09 17:00N 45°48' W 124°16'510.3
2017-Sep-09 16:30N 45°53' W 124°14'510.2
2017-Sep-09 16:00N 45°58' W 124°13'510.3
2017-Sep-09 15:30N 46°04' W 124°12'510.7
2017-Sep-09 15:00N 46°09' W 124°10'611.2
2017-Sep-09 14:30N 46°14' W 124°07'611.2
2017-Sep-09 14:00N 46°14' W 123°59'511.0
2017-Sep-09 13:30N 46°12' W 123°52'4 8.4
2017-Sep-09 13:00N 46°13' W 123°46'611.2
2017-Sep-09 12:30N 46°16' W 123°39'611.3
2017-Sep-09 12:00N 46°16' W 123°31'5 8.9
2017-Sep-09 11:30N 46°14' W 123°25'4 8.6
2017-Sep-09 11:00N 46°09' W 123°24'5 9.4
2017-Sep-09 10:30N 46°09' W 123°17'11 9.9
2017-Sep-09 09:22N 46°08' W 123°01'10 9.7
2017-Sep-09 08:18N 46°01' W 122°51'411.1
2017-Sep-09 07:59N 45°57' W 122°49'611.7
2017-Sep-09 07:27N 45°51' W 122°47'511.2
2017-Sep-09 07:00N 45°46' W 122°46'611.6
2017-Sep-09 06:30N 45°41' W 122°46'2 0.1
2017-Sep-07 16:48N 45°39' W 122°46'0 0.0
2017-Sep-07 10:54N 45°39' W 122°46'0 0.0
2017-Sep-07 10:30N 45°39' W 122°46'0 0.0
2017-Sep-07 10:00N 45°39' W 122°46'0 0.0
2017-Sep-07 09:24N 45°39' W 122°46'0 0.0
2017-Sep-07 09:00N 45°39' W 122°46'0 0.0
2017-Sep-07 08:30N 45°39' W 122°46'0 0.0
2017-Sep-07 08:00N 45°39' W 122°46'0 0.0
2017-Sep-07 07:30N 45°39' W 122°46'0 0.0
2017-Sep-07 06:54N 45°39' W 122°46'0 0.0
2017-Sep-07 06:30N 45°39' W 122°46'0 0.0
2017-Sep-07 05:48N 45°39' W 122°46'0 0.0
2017-Sep-07 05:18N 45°39' W 122°46'0 0.0
2017-Sep-07 05:00N 45°39' W 122°46'0 0.0
2017-Sep-07 04:30N 45°39' W 122°46'0 0.0
2017-Sep-07 04:00N 45°39' W 122°46'0 0.0
2017-Sep-07 03:30N 45°39' W 122°46'0 0.0
2017-Sep-07 03:00N 45°39' W 122°46'0 0.0
2017-Sep-07 02:30N 45°39' W 122°46'0 0.0
2017-Sep-07 02:00N 45°39' W 122°46'0 0.0
2017-Sep-07 01:30N 45°39' W 122°46'0 0.0
2017-Sep-07 01:00N 45°39' W 122°46'0 0.0
2017-Sep-07 00:30N 45°39' W 122°46'0 0.0
2017-Sep-07 00:00N 45°39' W 122°46'0 0.0
2017-Sep-06 23:30N 45°39' W 122°46'0 0.0
2017-Sep-06 23:00N 45°39' W 122°46'0 0.0
2017-Sep-06 22:27N 45°39' W 122°46'0 0.0
2017-Sep-06 22:00N 45°39' W 122°46'0 0.0
2017-Sep-06 21:30N 45°39' W 122°46'0 0.0
2017-Sep-06 21:00N 45°39' W 122°46'0 0.0
2017-Sep-06 20:30N 45°39' W 122°46'0 0.0
2017-Sep-06 20:00N 45°39' W 122°46'0 0.0
2017-Sep-06 19:30N 45°39' W 122°46'0 0.0
2017-Sep-06 19:00N 45°39' W 122°46'0 0.0
2017-Sep-06 18:30N 45°39' W 122°46'0 0.0
2017-Sep-06 18:00N 45°39' W 122°46'0 0.0
2017-Sep-06 17:30N 45°39' W 122°46'0 0.0
2017-Sep-06 16:57N 45°39' W 122°46'0 0.0
2017-Sep-06 00:27N 45°39' W 122°46'0 0.0
2017-Sep-06 00:00N 45°39' W 122°46'0 0.0
2017-Sep-05 23:27N 45°39' W 122°46'0 0.0
2017-Sep-05 22:51N 45°39' W 122°46'0 0.0
2017-Sep-05 22:27N 45°39' W 122°46'0 0.0
2017-Sep-05 22:00N 45°39' W 122°46'1 1.9
2017-Sep-05 21:24N 45°40' W 122°46'0 0.0
2017-Sep-05 20:52N 45°40' W 122°46'1 1.9
2017-Sep-05 20:31N 45°40' W 122°46'510.0
2017-Sep-05 20:01N 45°45' W 122°46'611.3
2017-Sep-05 19:31N 45°51' W 122°47'611.1
2017-Sep-05 19:01N 45°56' W 122°48'611.0
2017-Sep-05 18:30N 46°01' W 122°52'510.0
2017-Sep-05 18:00N 46°06' W 122°56'510.8
2017-Sep-05 17:30N 46°09' W 123°02'611.3
2017-Sep-05 17:00N 46°11' W 123°09'611.3
2017-Sep-05 16:30N 46°09' W 123°17'510.5
2017-Sep-05 16:00N 46°10' W 123°24'510.4
2017-Sep-05 15:29N 46°15' W 123°26'510.2
2017-Sep-05 15:01N 46°15' W 123°33'611.2
2017-Sep-05 14:30N 46°15' W 123°41'510.5
2017-Sep-05 14:01N 46°12' W 123°48'1 1.7
2017-Sep-05 13:28N 46°12' W 123°49'0 0.1
2017-Sep-05 12:58N 46°12' W 123°49'0 0.1
2017-Sep-05 12:28N 46°12' W 123°49'0 0.0
2017-Sep-05 11:58N 46°12' W 123°49'0 0.0
2017-Sep-05 11:28N 46°12' W 123°49'0 0.0
2017-Sep-05 10:58N 46°12' W 123°49'0 0.1
2017-Sep-05 10:25N 46°12' W 123°49'0 0.0
2017-Sep-05 09:58N 46°12' W 123°49'0 0.1
2017-Sep-05 09:28N 46°12' W 123°49'0 0.1
2017-Sep-05 08:58N 46°12' W 123°49'0 0.3
2017-Sep-05 08:28N 46°12' W 123°49'0 0.1
2017-Sep-05 07:55N 46°12' W 123°49'0 0.1
2017-Sep-05 07:25N 46°12' W 123°49'0 0.0
2017-Sep-05 06:58N 46°12' W 123°49'0 0.0
2017-Sep-05 06:28N 46°12' W 123°49'0 0.1
2017-Sep-05 05:58N 46°12' W 123°49'0 0.1
2017-Sep-05 05:19N 46°12' W 123°49'0 0.1
2017-Sep-05 04:52N 46°12' W 123°49'0 0.4
2017-Sep-05 04:28N 46°12' W 123°49'0 0.1
2017-Sep-05 03:58N 46°12' W 123°49'0 0.0
2017-Sep-05 03:28N 46°12' W 123°49'0 0.0
2017-Sep-05 02:58N 46°12' W 123°49'0 0.0
2017-Sep-05 02:28N 46°12' W 123°49'0 0.0
2017-Sep-05 01:58N 46°12' W 123°49'0 0.0
2017-Sep-05 01:28N 46°12' W 123°49'0 0.0
2017-Sep-05 00:58N 46°12' W 123°49'0 0.0
2017-Sep-05 00:28N 46°12' W 123°49'0 0.0
2017-Sep-04 23:58N 46°12' W 123°49'0 0.0
2017-Sep-04 23:25N 46°12' W 123°49'0 0.0
2017-Sep-04 22:58N 46°12' W 123°49'0 0.1
2017-Sep-04 22:28N 46°12' W 123°49'0 0.1
2017-Sep-04 21:58N 46°12' W 123°49'0 0.1
2017-Sep-04 21:28N 46°12' W 123°49'0 0.2
2017-Sep-04 20:58N 46°12' W 123°49'0 0.2
2017-Sep-04 20:28N 46°12' W 123°49'0 0.0
2017-Sep-04 19:58N 46°12' W 123°49'0 0.0
2017-Sep-04 19:28N 46°12' W 123°49'0 0.0
2017-Sep-04 18:58N 46°12' W 123°49'0 0.0
2017-Sep-04 18:28N 46°12' W 123°49'0 0.1
2017-Sep-04 17:52N 46°12' W 123°49'0 0.0
2017-Sep-04 17:25N 46°12' W 123°49'0 0.3
2017-Sep-04 16:58N 46°12' W 123°49'0 0.2
2017-Sep-04 16:28N 46°12' W 123°49'0 0.1
2017-Sep-04 15:58N 46°12' W 123°49'0 0.0
2017-Sep-04 15:28N 46°12' W 123°49'0 0.0
2017-Sep-04 14:58N 46°12' W 123°49'0 0.0
2017-Sep-04 14:28N 46°12' W 123°49'0 0.0
2017-Sep-04 13:58N 46°12' W 123°49'0 0.1
2017-Sep-04 13:28N 46°12' W 123°49'0 0.1
2017-Sep-04 12:55N 46°12' W 123°49'0 0.0
2017-Sep-04 12:28N 46°12' W 123°49'0 0.1
2017-Sep-04 11:58N 46°12' W 123°49'0 0.0
2017-Sep-04 11:28N 46°12' W 123°49'0 0.0
2017-Sep-04 10:58N 46°12' W 123°49'0 0.0
2017-Sep-04 10:28N 46°12' W 123°49'0 0.0
2017-Sep-04 09:58N 46°12' W 123°49'0 0.1
2017-Sep-04 09:28N 46°12' W 123°49'0 0.0
2017-Sep-04 08:58N 46°12' W 123°49'0 0.2
2017-Sep-04 08:28N 46°12' W 123°49'0 0.3
2017-Sep-04 07:58N 46°12' W 123°49'0 0.1
2017-Sep-04 07:28N 46°12' W 123°49'0 0.0
2017-Sep-04 06:55N 46°12' W 123°49'0 0.1
2017-Sep-04 06:28N 46°12' W 123°49'0 0.1
2017-Sep-04 05:55N 46°12' W 123°49'0 0.1
2017-Sep-04 05:28N 46°12' W 123°49'0 0.0
2017-Sep-04 04:58N 46°12' W 123°49'0 0.1
2017-Sep-04 04:28N 46°12' W 123°49'0 0.2
2017-Sep-04 03:58N 46°12' W 123°49'0 0.2
2017-Sep-04 03:22N 46°12' W 123°49'0 0.0
2017-Sep-04 02:58N 46°12' W 123°49'0 0.0
2017-Sep-04 02:28N 46°12' W 123°49'0 0.0
2017-Sep-04 01:58N 46°12' W 123°49'0 0.0
2017-Sep-04 01:28N 46°12' W 123°49'0 0.0
2017-Sep-04 00:58N 46°12' W 123°49'0 0.0
2017-Sep-04 00:28N 46°12' W 123°49'0 0.0
2017-Sep-03 23:58N 46°12' W 123°49'0 0.0
2017-Sep-03 23:28N 46°12' W 123°49'0 0.0
2017-Sep-03 22:58N 46°12' W 123°49'0 0.0
2017-Sep-03 22:28N 46°12' W 123°49'0 0.1
2017-Sep-03 21:58N 46°12' W 123°49'0 0.1
2017-Sep-03 21:25N 46°12' W 123°49'0 0.3
2017-Sep-03 20:55N 46°12' W 123°49'0 0.1
2017-Sep-03 20:25N 46°12' W 123°49'0 0.0
2017-Sep-03 19:58N 46°12' W 123°49'0 0.0
2017-Sep-03 19:28N 46°12' W 123°49'0 0.1
2017-Sep-03 18:58N 46°12' W 123°49'0 0.0
2017-Sep-03 18:28N 46°12' W 123°49'0 0.1
2017-Sep-03 17:58N 46°12' W 123°49'0 0.1
2017-Sep-03 17:28N 46°12' W 123°49'0 0.1
2017-Sep-03 16:58N 46°12' W 123°49'0 0.2
2017-Sep-03 16:28N 46°12' W 123°49'0 0.3
2017-Sep-03 15:58N 46°12' W 123°49'0 0.0
2017-Sep-03 15:28N 46°12' W 123°49'0 0.0
2017-Sep-03 14:58N 46°12' W 123°49'0 0.0
2017-Sep-03 13:58N 46°12' W 123°49'0 0.0
2017-Sep-03 13:28N 46°12' W 123°49'0 0.0
2017-Sep-03 12:58N 46°12' W 123°49'0 0.0
2017-Sep-03 12:28N 46°12' W 123°49'0 0.0
2017-Sep-03 11:58N 46°12' W 123°49'0 0.0
2017-Sep-03 11:28N 46°12' W 123°49'0 0.0
2017-Sep-03 10:58N 46°12' W 123°49'0 0.0
2017-Sep-03 10:28N 46°12' W 123°49'0 0.0
2017-Sep-03 09:58N 46°12' W 123°49'0 0.0
2017-Sep-03 09:28N 46°12' W 123°49'0 0.0
2017-Sep-03 08:55N 46°12' W 123°49'0 0.2
2017-Sep-03 08:28N 46°12' W 123°49'0 0.3
2017-Sep-03 07:58N 46°12' W 123°49'  
Track history (hours):
 
Tides and Currents Weather Stations Pressure Air Temp Water Temp Dewpoint Dewpoint Depression Visibility Wind Speed Wind Dir Waves Ship Positions

Menomonee

Last reported at 2017-Sep-13 07:41 UTC. Time now 2017-Nov-24 07:34 UTC.
Position N 30°29' W 119°27'.
Warning: this ship's position is months out of date.

Length 190 m; draft 12.9 m.

Type: Cargo ship. MMSI: 212968000.

Date/timePositionNaut miles runAvg speedWind from/ knotsBaromVisibWave heightAir tempDewpointWater temp
2017-Sep-13 07:41N 30°29' W 119°27'212.3
2017-Sep-13 07:30N 30°30' W 119°28'1312.1
2017-Sep-13 06:27N 30°40' W 119°38'4711.7
2017-Sep-13 02:27N 31°19' W 120°08'511.9
2017-Sep-13 02:00N 31°24' W 120°11'811.8
2017-Sep-13 01:19N 31°31' W 120°15'412.1
2017-Sep-13 01:00N 31°34' W 120°17'912.1
2017-Sep-13 00:16N 31°42' W 120°22'711.9
2017-Sep-12 23:43N 31°48' W 120°25'511.7
2017-Sep-12 23:17N 31°53' W 120°28'9311.6
2017-Sep-12 15:20N 33°15' W 121°17'711.6
2017-Sep-12 14:43N 33°22' W 121°21'511.5
2017-Sep-12 14:17N 33°26' W 121°24'611.2
2017-Sep-12 13:47N 33°31' W 121°27'311.4
2017-Sep-12 13:29N 33°34' W 121°28'611.6
2017-Sep-12 12:59N 33°39' W 121°32'611.7
2017-Sep-12 12:30N 33°44' W 121°35'611.6
2017-Sep-12 12:01N 33°49' W 121°38'611.3
2017-Sep-12 11:31N 33°54' W 121°41'611.2
2017-Sep-12 11:00N 33°60' W 121°44'611.2
2017-Sep-12 10:31N 34°04' W 121°47'611.2
2017-Sep-12 10:00N 34°09' W 121°50'611.2
2017-Sep-12 09:30N 34°14' W 121°53'1211.3
2017-Sep-12 08:29N 34°25' W 121°59'511.2
2017-Sep-12 08:00N 34°30' W 122°02'611.7
2017-Sep-12 07:30N 34°35' W 122°06'612.0
2017-Sep-12 07:00N 34°40' W 122°09'612.1
2017-Sep-12 06:30N 34°46' W 122°12'612.0
2017-Sep-12 06:00N 34°51' W 122°15'612.0
2017-Sep-12 05:30N 34°56' W 122°19'1412.0
2017-Sep-12 04:20N 35°09' W 122°26'411.9
2017-Sep-12 03:59N 35°13' W 122°28'611.8
2017-Sep-12 03:30N 35°18' W 122°32'811.6
2017-Sep-12 02:48N 35°25' W 122°36'1511.4
2017-Sep-12 01:26N 35°39' W 122°45'511.6
2017-Sep-12 00:59N 35°44' W 122°48'611.7
2017-Sep-12 00:30N 35°49' W 122°51'611.7
2017-Sep-11 23:57N 35°54' W 122°54'511.8
2017-Sep-11 23:30N 35°59' W 122°57'611.7
2017-Sep-11 23:00N 36°04' W 123°00'611.7
2017-Sep-11 22:30N 36°10' W 123°04'611.9
2017-Sep-11 22:00N 36°15' W 123°07'611.6
2017-Sep-11 21:30N 36°20' W 123°10'611.4
2017-Sep-11 21:00N 36°25' W 123°13'711.6
2017-Sep-11 20:26N 36°31' W 123°17'1211.5
2017-Sep-11 19:25N 36°41' W 123°24'511.6
2017-Sep-11 19:00N 36°46' W 123°27'611.5
2017-Sep-11 18:30N 36°51' W 123°30'611.6
2017-Sep-11 18:00N 36°56' W 123°33'611.6
2017-Sep-11 17:30N 37°01' W 123°36'611.6
2017-Sep-11 17:01N 37°06' W 123°40'611.5
2017-Sep-11 16:30N 37°11' W 123°43'611.4
2017-Sep-11 16:00N 37°16' W 123°46'611.4
2017-Sep-11 15:30N 37°21' W 123°50'511.0
2017-Sep-11 15:00N 37°26' W 123°52'611.1
2017-Sep-11 14:30N 37°32' W 123°55'611.0
2017-Sep-11 14:00N 37°37' W 123°58'611.1
2017-Sep-11 13:30N 37°42' W 124°01'611.1
2017-Sep-11 13:00N 37°47' W 124°04'611.0
2017-Sep-11 12:28N 37°52' W 124°06'510.9
2017-Sep-11 12:00N 37°57' W 124°08'611.0
2017-Sep-11 11:30N 38°02' W 124°10'611.1
2017-Sep-11 11:00N 38°08' W 124°12'611.2
2017-Sep-11 10:30N 38°13' W 124°14'511.0
2017-Sep-11 10:00N 38°18' W 124°16'611.1
2017-Sep-11 09:30N 38°24' W 124°18'611.4
2017-Sep-11 09:00N 38°29' W 124°20'611.6
2017-Sep-11 08:30N 38°35' W 124°21'611.4
2017-Sep-11 08:00N 38°40' W 124°24'611.8
2017-Sep-11 07:30N 38°46' W 124°26'611.8
2017-Sep-11 07:00N 38°52' W 124°28'612.0
2017-Sep-11 06:30N 38°57' W 124°30'611.7
2017-Sep-11 06:00N 39°03' W 124°32'611.7
2017-Sep-11 05:30N 39°09' W 124°34'611.7
2017-Sep-11 04:59N 39°15' W 124°36'37111.0
2017-Sep-09 19:16N 45°25' W 124°22'510.3
2017-Sep-09 18:45N 45°30' W 124°20'610.4
2017-Sep-09 18:12N 45°36' W 124°19'210.7
2017-Sep-09 18:00N 45°38' W 124°18'510.7
2017-Sep-09 17:30N 45°43' W 124°17'510.2
2017-Sep-09 17:00N 45°48' W 124°16'510.3
2017-Sep-09 16:30N 45°53' W 124°14'510.2
2017-Sep-09 16:00N 45°58' W 124°13'510.3
2017-Sep-09 15:30N 46°04' W 124°12'510.7
2017-Sep-09 15:00N 46°09' W 124°10'611.2
2017-Sep-09 14:30N 46°14' W 124°07'611.2
2017-Sep-09 14:00N 46°14' W 123°59'511.0
2017-Sep-09 13:30N 46°12' W 123°52'4 8.4
2017-Sep-09 13:00N 46°13' W 123°46'611.2
2017-Sep-09 12:30N 46°16' W 123°39'611.3
2017-Sep-09 12:00N 46°16' W 123°31'5 8.9
2017-Sep-09 11:30N 46°14' W 123°25'4 8.6
2017-Sep-09 11:00N 46°09' W 123°24'5 9.4
2017-Sep-09 10:30N 46°09' W 123°17'11 9.9
2017-Sep-09 09:22N 46°08' W 123°01'10 9.7
2017-Sep-09 08:18N 46°01' W 122°51'411.1
2017-Sep-09 07:59N 45°57' W 122°49'611.7
2017-Sep-09 07:27N 45°51' W 122°47'511.2
2017-Sep-09 07:00N 45°46' W 122°46'611.6
2017-Sep-09 06:30N 45°41' W 122°46'2 0.1
2017-Sep-07 16:48N 45°39' W 122°46'0 0.0
2017-Sep-07 10:54N 45°39' W 122°46'0 0.0
2017-Sep-07 10:30N 45°39' W 122°46'0 0.0
2017-Sep-07 10:00N 45°39' W 122°46'0 0.0
2017-Sep-07 09:24N 45°39' W 122°46'0 0.0
2017-Sep-07 09:00N 45°39' W 122°46'0 0.0
2017-Sep-07 08:30N 45°39' W 122°46'0 0.0
2017-Sep-07 08:00N 45°39' W 122°46'0 0.0
2017-Sep-07 07:30N 45°39' W 122°46'0 0.0
2017-Sep-07 06:54N 45°39' W 122°46'0 0.0
2017-Sep-07 06:30N 45°39' W 122°46'0 0.0
2017-Sep-07 05:48N 45°39' W 122°46'0 0.0
2017-Sep-07 05:18N 45°39' W 122°46'0 0.0
2017-Sep-07 05:00N 45°39' W 122°46'0 0.0
2017-Sep-07 04:30N 45°39' W 122°46'0 0.0
2017-Sep-07 04:00N 45°39' W 122°46'0 0.0
2017-Sep-07 03:30N 45°39' W 122°46'0 0.0
2017-Sep-07 03:00N 45°39' W 122°46'0 0.0
2017-Sep-07 02:30N 45°39' W 122°46'0 0.0
2017-Sep-07 02:00N 45°39' W 122°46'0 0.0
2017-Sep-07 01:30N 45°39' W 122°46'0 0.0
2017-Sep-07 01:00N 45°39' W 122°46'0 0.0
2017-Sep-07 00:30N 45°39' W 122°46'0 0.0
2017-Sep-07 00:00N 45°39' W 122°46'0 0.0
2017-Sep-06 23:30N 45°39' W 122°46'0 0.0
2017-Sep-06 23:00N 45°39' W 122°46'0 0.0
2017-Sep-06 22:27N 45°39' W 122°46'0 0.0
2017-Sep-06 22:00N 45°39' W 122°46'0 0.0
2017-Sep-06 21:30N 45°39' W 122°46'0 0.0
2017-Sep-06 21:00N 45°39' W 122°46'0 0.0
2017-Sep-06 20:30N 45°39' W 122°46'0 0.0
2017-Sep-06 20:00N 45°39' W 122°46'0 0.0
2017-Sep-06 19:30N 45°39' W 122°46'0 0.0
2017-Sep-06 19:00N 45°39' W 122°46'0 0.0
2017-Sep-06 18:30N 45°39' W 122°46'0 0.0
2017-Sep-06 18:00N 45°39' W 122°46'0 0.0
2017-Sep-06 17:30N 45°39' W 122°46'0 0.0
2017-Sep-06 16:57N 45°39' W 122°46'0 0.0
2017-Sep-06 00:27N 45°39' W 122°46'0 0.0
2017-Sep-06 00:00N 45°39' W 122°46'0 0.0
2017-Sep-05 23:27N 45°39' W 122°46'0 0.0
2017-Sep-05 22:51N 45°39' W 122°46'0 0.0
2017-Sep-05 22:27N 45°39' W 122°46'0 0.0
2017-Sep-05 22:00N 45°39' W 122°46'1 1.9
2017-Sep-05 21:24N 45°40' W 122°46'0 0.0
2017-Sep-05 20:52N 45°40' W 122°46'1 1.9
2017-Sep-05 20:31N 45°40' W 122°46'510.0
2017-Sep-05 20:01N 45°45' W 122°46'611.3
2017-Sep-05 19:31N 45°51' W 122°47'611.1
2017-Sep-05 19:01N 45°56' W 122°48'611.0
2017-Sep-05 18:30N 46°01' W 122°52'510.0
2017-Sep-05 18:00N 46°06' W 122°56'510.8
2017-Sep-05 17:30N 46°09' W 123°02'611.3
2017-Sep-05 17:00N 46°11' W 123°09'611.3
2017-Sep-05 16:30N 46°09' W 123°17'510.5
2017-Sep-05 16:00N 46°10' W 123°24'510.4
2017-Sep-05 15:29N 46°15' W 123°26'510.2
2017-Sep-05 15:01N 46°15' W 123°33'611.2
2017-Sep-05 14:30N 46°15' W 123°41'510.5
2017-Sep-05 14:01N 46°12' W 123°48'1 1.7
2017-Sep-05 13:28N 46°12' W 123°49'0 0.1
2017-Sep-05 12:58N 46°12' W 123°49'0 0.1
2017-Sep-05 12:28N 46°12' W 123°49'0 0.0
2017-Sep-05 11:58N 46°12' W 123°49'0 0.0
2017-Sep-05 11:28N 46°12' W 123°49'0 0.0
2017-Sep-05 10:58N 46°12' W 123°49'0 0.1
2017-Sep-05 10:25N 46°12' W 123°49'0 0.0
2017-Sep-05 09:58N 46°12' W 123°49'0 0.1
2017-Sep-05 09:28N 46°12' W 123°49'0 0.1
2017-Sep-05 08:58N 46°12' W 123°49'0 0.3
2017-Sep-05 08:28N 46°12' W 123°49'0 0.1
2017-Sep-05 07:55N 46°12' W 123°49'0 0.1
2017-Sep-05 07:25N 46°12' W 123°49'0 0.0
2017-Sep-05 06:58N 46°12' W 123°49'0 0.0
2017-Sep-05 06:28N 46°12' W 123°49'0 0.1
2017-Sep-05 05:58N 46°12' W 123°49'0 0.1
2017-Sep-05 05:19N 46°12' W 123°49'0 0.1
2017-Sep-05 04:52N 46°12' W 123°49'0 0.4
2017-Sep-05 04:28N 46°12' W 123°49'0 0.1
2017-Sep-05 03:58N 46°12' W 123°49'0 0.0
2017-Sep-05 03:28N 46°12' W 123°49'0 0.0
2017-Sep-05 02:58N 46°12' W 123°49'0 0.0
2017-Sep-05 02:28N 46°12' W 123°49'0 0.0
2017-Sep-05 01:58N 46°12' W 123°49'0 0.0
2017-Sep-05 01:28N 46°12' W 123°49'0 0.0
2017-Sep-05 00:58N 46°12' W 123°49'0 0.0
2017-Sep-05 00:28N 46°12' W 123°49'0 0.0
2017-Sep-04 23:58N 46°12' W 123°49'0 0.0
2017-Sep-04 23:25N 46°12' W 123°49'0 0.0
2017-Sep-04 22:58N 46°12' W 123°49'0 0.1
2017-Sep-04 22:28N 46°12' W 123°49'0 0.1
2017-Sep-04 21:58N 46°12' W 123°49'0 0.1
2017-Sep-04 21:28N 46°12' W 123°49'0 0.2
2017-Sep-04 20:58N 46°12' W 123°49'0 0.2
2017-Sep-04 20:28N 46°12' W 123°49'0 0.0
2017-Sep-04 19:58N 46°12' W 123°49'0 0.0
2017-Sep-04 19:28N 46°12' W 123°49'0 0.0
2017-Sep-04 18:58N 46°12' W 123°49'0 0.0
2017-Sep-04 18:28N 46°12' W 123°49'0 0.1
2017-Sep-04 17:52N 46°12' W 123°49'0 0.0
2017-Sep-04 17:25N 46°12' W 123°49'0 0.3
2017-Sep-04 16:58N 46°12' W 123°49'0 0.2
2017-Sep-04 16:28N 46°12' W 123°49'0 0.1
2017-Sep-04 15:58N 46°12' W 123°49'0 0.0
2017-Sep-04 15:28N 46°12' W 123°49'0 0.0
2017-Sep-04 14:58N 46°12' W 123°49'0 0.0
2017-Sep-04 14:28N 46°12' W 123°49'0 0.0
2017-Sep-04 13:58N 46°12' W 123°49'0 0.1
2017-Sep-04 13:28N 46°12' W 123°49'0 0.1
2017-Sep-04 12:55N 46°12' W 123°49'0 0.0
2017-Sep-04 12:28N 46°12' W 123°49'0 0.1
2017-Sep-04 11:58N 46°12' W 123°49'0 0.0
2017-Sep-04 11:28N 46°12' W 123°49'0 0.0
2017-Sep-04 10:58N 46°12' W 123°49'0 0.0
2017-Sep-04 10:28N 46°12' W 123°49'0 0.0
2017-Sep-04 09:58N 46°12' W 123°49'0 0.1
2017-Sep-04 09:28N 46°12' W 123°49'0 0.0
2017-Sep-04 08:58N 46°12' W 123°49'0 0.2
2017-Sep-04 08:28N 46°12' W 123°49'0 0.3
2017-Sep-04 07:58N 46°12' W 123°49'0 0.1
2017-Sep-04 07:28N 46°12' W 123°49'0 0.0
2017-Sep-04 06:55N 46°12' W 123°49'0 0.1
2017-Sep-04 06:28N 46°12' W 123°49'0 0.1
2017-Sep-04 05:55N 46°12' W 123°49'0 0.1
2017-Sep-04 05:28N 46°12' W 123°49'0 0.0
2017-Sep-04 04:58N 46°12' W 123°49'0 0.1
2017-Sep-04 04:28N 46°12' W 123°49'0 0.2
2017-Sep-04 03:58N 46°12' W 123°49'0 0.2
2017-Sep-04 03:22N 46°12' W 123°49'0 0.0
2017-Sep-04 02:58N 46°12' W 123°49'0 0.0
2017-Sep-04 02:28N 46°12' W 123°49'0 0.0
2017-Sep-04 01:58N 46°12' W 123°49'0 0.0
2017-Sep-04 01:28N 46°12' W 123°49'0 0.0
2017-Sep-04 00:58N 46°12' W 123°49'0 0.0
2017-Sep-04 00:28N 46°12' W 123°49'0 0.0
2017-Sep-03 23:58N 46°12' W 123°49'0 0.0
2017-Sep-03 23:28N 46°12' W 123°49'0 0.0
2017-Sep-03 22:58N 46°12' W 123°49'0 0.0
2017-Sep-03 22:28N 46°12' W 123°49'0 0.1
2017-Sep-03 21:58N 46°12' W 123°49'0 0.1
2017-Sep-03 21:25N 46°12' W 123°49'0 0.3
2017-Sep-03 20:55N 46°12' W 123°49'0 0.1
2017-Sep-03 20:25N 46°12' W 123°49'0 0.0
2017-Sep-03 19:58N 46°12' W 123°49'0 0.0
2017-Sep-03 19:28N 46°12' W 123°49'0 0.1
2017-Sep-03 18:58N 46°12' W 123°49'0 0.0
2017-Sep-03 18:28N 46°12' W 123°49'0 0.1
2017-Sep-03 17:58N 46°12' W 123°49'0 0.1
2017-Sep-03 17:28N 46°12' W 123°49'0 0.1
2017-Sep-03 16:58N 46°12' W 123°49'0 0.2
2017-Sep-03 16:28N 46°12' W 123°49'0 0.3
2017-Sep-03 15:58N 46°12' W 123°49'0 0.0
2017-Sep-03 15:28N 46°12' W 123°49'0 0.0
2017-Sep-03 14:58N 46°12' W 123°49'0 0.0
2017-Sep-03 13:58N 46°12' W 123°49'0 0.0
2017-Sep-03 13:28N 46°12' W 123°49'0 0.0
2017-Sep-03 12:58N 46°12' W 123°49'0 0.0
2017-Sep-03 12:28N 46°12' W 123°49'0 0.0
2017-Sep-03 11:58N 46°12' W 123°49'0 0.0
2017-Sep-03 11:28N 46°12' W 123°49'0 0.0
2017-Sep-03 10:58N 46°12' W 123°49'0 0.0
2017-Sep-03 10:28N 46°12' W 123°49'0 0.0
2017-Sep-03 09:58N 46°12' W 123°49'0 0.0
2017-Sep-03 09:28N 46°12' W 123°49'0 0.0
2017-Sep-03 08:55N 46°12' W 123°49'0 0.2
2017-Sep-03 08:28N 46°12' W 123°49'0 0.3
2017-Sep-03 07:58N 46°12' W 123°49'  

Dump ship's entire track history